Time,TemperatureF,DewpointF,PressureIn,WindDirection,WindDirectionDegrees,WindSpeedMPH,WindSpeedGustMPH,Humidity,HourlyPrecipIn,Conditions,Clouds,dailyrainin,SolarRadiationWatts/m^2,SoftwareType,DateUTC
2013-07-01 00:01:00,73.0,71.0,-100.00,SE,139,2.0,4.0,95,0.00,,,0.01,0.000000,,2013-07-01 04:01:00,
2013-07-01 00:11:00,73.0,71.0,-100.00,SE,139,2.0,4.0,95,0.00,,,0.01,0.000000,,2013-07-01 04:11:00,
2013-07-01 00:32:00,75.0,70.0,-100.00,SE,124,2.0,7.0,84,0.00,,,0.01,0.000000,,2013-07-01 04:32:00,
2013-07-01 00:43:00,75.0,70.0,-100.00,SE,124,2.0,7.0,84,0.00,,,0.01,0.000000,,2013-07-01 04:43:00,
2013-07-01 00:53:00,75.0,70.0,-100.00,SE,124,2.0,7.0,84,0.00,,,0.01,0.000000,,2013-07-01 04:53:00,
2013-07-01 01:02:00,75.0,70.0,-100.00,SE,124,2.0,7.0,84,0.00,,,0.01,0.000000,,2013-07-01 05:02:00,
2013-07-01 01:11:00,75.0,70.0,-100.00,SE,124,2.0,7.0,84,0.00,,,0.01,0.000000,,2013-07-01 05:11:00,
2013-07-01 01:42:00,72.0,68.0,-100.00,NW,317,1.0,4.0,88,0.00,,,0.01,0.000000,,2013-07-01 05:42:00,
2013-07-01 01:52:00,72.0,68.0,-100.00,NW,317,1.0,4.0,88,0.00,,,0.01,0.000000,,2013-07-01 05:52:00,
2013-07-01 02:02:00,72.0,68.0,-100.00,NW,317,1.0,4.0,88,0.00,,,0.01,0.000000,,2013-07-01 06:02:00,
2013-07-01 02:12:00,72.0,68.0,-100.00,NW,317,1.0,4.0,88,0.00,,,0.01,0.000000,,2013-07-01 06:12:00,
2013-07-01 02:43:00,72.0,69.0,-100.00,NNE,17,0.0,2.0,89,0.00,,,0.01,0.000000,,2013-07-01 06:43:00,
2013-07-01 02:53:00,72.0,69.0,-100.00,NNE,17,0.0,2.0,89,0.00,,,0.01,0.000000,,2013-07-01 06:53:00,
2013-07-01 03:02:00,72.0,69.0,-100.00,NNE,17,0.0,2.0,89,0.00,,,0.01,0.000000,,2013-07-01 07:02:00,
2013-07-01 03:12:00,72.0,69.0,-100.00,NNE,17,0.0,2.0,89,0.00,,,0.01,0.000000,,2013-07-01 07:12:00,
2013-07-01 03:43:00,71.0,69.0,-100.00,SSE,151,1.0,2.0,94,0.00,,,0.01,0.000000,,2013-07-01 07:43:00,
2013-07-01 03:53:00,71.0,69.0,-100.00,SSE,151,1.0,2.0,94,0.00,,,0.01,0.000000,,2013-07-01 07:53:00,
2013-07-01 04:01:00,71.0,69.0,-100.00,SSE,151,1.0,2.0,94,0.00,,,0.01,0.000000,,2013-07-01 08:01:00,
2013-07-01 04:12:00,71.0,69.0,-100.00,SSE,151,1.0,2.0,94,0.00,,,0.01,0.000000,,2013-07-01 08:12:00,
2013-07-01 04:43:00,70.0,69.0,-100.00,East,79,1.0,2.0,97,0.00,,,0.00,0.000000,,2013-07-01 08:43:00,
2013-07-01 04:52:00,70.0,69.0,-100.00,East,79,1.0,2.0,97,0.00,,,0.00,0.000000,,2013-07-01 08:52:00,
2013-07-01 05:02:00,70.0,69.0,-100.00,East,79,1.0,2.0,97,0.00,,,0.00,0.000000,,2013-07-01 09:02:00,
2013-07-01 05:12:00,70.0,69.0,-100.00,East,79,1.0,2.0,97,0.00,,,0.00,0.000000,,2013-07-01 09:12:00,
2013-07-01 05:43:00,70.0,70.0,-100.00,NNW,343,1.0,2.0,99,0.00,,,0.00,0.000000,,2013-07-01 09:43:00,
2013-07-01 05:53:00,70.0,70.0,-100.00,NNW,343,1.0,2.0,99,0.00,,,0.00,0.000000,,2013-07-01 09:53:00,
2013-07-01 06:03:00,70.0,70.0,-100.00,NNW,343,1.0,2.0,99,0.00,,,0.00,0.000000,,2013-07-01 10:03:00,
2013-07-01 06:12:00,70.0,70.0,-100.00,NNW,343,1.0,2.0,99,0.00,,,0.00,0.000000,,2013-07-01 10:12:00,
2013-07-01 06:43:00,70.0,70.0,-100.00,NE,54,1.0,2.0,100,0.00,,,0.00,1.000000,,2013-07-01 10:43:00,
2013-07-01 06:52:00,70.0,70.0,-100.00,NE,54,1.0,2.0,100,0.00,,,0.00,1.000000,,2013-07-01 10:52:00,
2013-07-01 07:02:00,70.0,70.0,-100.00,NE,54,1.0,2.0,100,0.00,,,0.00,1.000000,,2013-07-01 11:02:00,
2013-07-01 07:12:00,70.0,70.0,-100.00,NE,54,1.0,2.0,100,0.00,,,0.00,1.000000,,2013-07-01 11:12:00,
2013-07-01 07:33:00,71.0,71.0,-100.00,NE,50,0.0,4.0,99,0.00,,,0.00,11.000000,,2013-07-01 11:33:00,
2013-07-01 07:43:00,71.0,71.0,-100.00,NE,50,0.0,4.0,99,0.00,,,0.00,11.000000,,2013-07-01 11:43:00,
2013-07-01 07:52:00,71.0,71.0,-100.00,NE,50,0.0,4.0,99,0.00,,,0.00,11.000000,,2013-07-01 11:52:00,
2013-07-01 08:01:00,71.0,71.0,-100.00,NE,50,0.0,4.0,99,0.00,,,0.00,11.000000,,2013-07-01 12:01:00,
2013-07-01 08:11:00,71.0,71.0,-100.00,NE,50,0.0,4.0,99,0.00,,,0.00,11.000000,,2013-07-01 12:11:00,
2013-07-01 08:33:00,73.0,71.0,-100.00,SE,127,2.0,5.0,93,0.00,,,0.00,100.000000,,2013-07-01 12:33:00,
2013-07-01 08:43:00,73.0,71.0,-100.00,SE,127,2.0,5.0,93,0.00,,,0.00,100.000000,,2013-07-01 12:43:00,
2013-07-01 08:53:00,73.0,71.0,-100.00,SE,127,2.0,5.0,93,0.00,,,0.00,100.000000,,2013-07-01 12:53:00,
2013-07-01 09:02:00,73.0,71.0,-100.00,SE,127,2.0,5.0,93,0.00,,,0.00,100.000000,,2013-07-01 13:02:00,
2013-07-01 09:12:00,73.0,71.0,-100.00,SE,127,2.0,5.0,93,0.00,,,0.00,100.000000,,2013-07-01 13:12:00,
2013-07-01 09:43:00,77.0,71.0,-100.00,SE,137,3.0,7.0,81,0.00,,,0.00,260.000000,,2013-07-01 13:43:00,
2013-07-01 09:53:00,77.0,71.0,-100.00,SE,137,3.0,7.0,81,0.00,,,0.00,260.000000,,2013-07-01 13:53:00,
2013-07-01 10:02:00,77.0,71.0,-100.00,SE,137,3.0,7.0,81,0.00,,,0.00,260.000000,,2013-07-01 14:02:00,
2013-07-01 10:11:00,77.0,71.0,-100.00,SE,137,3.0,7.0,81,0.00,,,0.00,260.000000,,2013-07-01 14:11:00,
2013-07-01 10:43:00,78.0,70.0,-100.00,SSE,150,3.0,7.0,77,0.00,,,0.00,277.000000,,2013-07-01 14:43:00,
2013-07-01 10:53:00,78.0,70.0,-100.00,SSE,150,3.0,7.0,77,0.00,,,0.00,277.000000,,2013-07-01 14:53:00,
2013-07-01 11:02:00,78.0,70.0,-100.00,SSE,150,3.0,7.0,77,0.00,,,0.00,277.000000,,2013-07-01 15:02:00,
2013-07-01 11:12:00,78.0,70.0,-100.00,SSE,150,3.0,7.0,77,0.00,,,0.00,277.000000,,2013-07-01 15:12:00,
2013-07-01 11:43:00,77.0,70.0,-100.00,SSE,152,3.0,9.0,80,0.00,,,0.00,191.000000,,2013-07-01 15:43:00,
2013-07-01 11:53:00,77.0,70.0,-100.00,SSE,152,3.0,9.0,80,0.00,,,0.00,191.000000,,2013-07-01 15:53:00,
2013-07-01 12:01:00,77.0,70.0,-100.00,SSE,152,3.0,9.0,80,0.00,,,0.00,191.000000,,2013-07-01 16:01:00,
2013-07-01 12:11:00,77.0,70.0,-100.00,SSE,152,3.0,9.0,80,0.00,,,0.00,191.000000,,2013-07-01 16:11:00,
2013-07-01 12:33:00,77.0,70.0,-100.00,SSE,149,4.0,10.0,79,0.00,,,0.00,227.000000,,2013-07-01 16:33:00,
2013-07-01 12:44:00,77.0,70.0,-100.00,SSE,149,4.0,10.0,79,0.00,,,0.00,227.000000,,2013-07-01 16:44:00,
2013-07-01 12:53:00,77.0,70.0,-100.00,SSE,149,4.0,10.0,79,0.00,,,0.00,227.000000,,2013-07-01 16:53:00,
2013-07-01 13:02:00,77.0,70.0,-100.00,SSE,149,4.0,10.0,79,0.00,,,0.00,227.000000,,2013-07-01 17:02:00,
2013-07-01 13:12:00,77.0,70.0,-100.00,SSE,149,4.0,10.0,79,0.00,,,0.00,227.000000,,2013-07-01 17:12:00,
2013-07-01 13:43:00,78.0,71.0,-100.00,SSE,163,2.0,8.0,79,0.00,,,0.00,241.000000,,2013-07-01 17:43:00,
2013-07-01 13:53:00,78.0,71.0,-100.00,SSE,163,2.0,8.0,79,0.00,,,0.00,241.000000,,2013-07-01 17:53:00,
2013-07-01 14:02:00,78.0,71.0,-100.00,SSE,163,2.0,8.0,79,0.00,,,0.00,241.000000,,2013-07-01 18:02:00,
2013-07-01 14:11:00,78.0,71.0,-100.00,SSE,163,2.0,8.0,79,0.00,,,0.00,241.000000,,2013-07-01 18:11:00,
2013-07-01 14:44:00,83.0,73.0,-100.00,SSW,207,3.0,9.0,71,0.00,,,0.00,707.000000,,2013-07-01 18:44:00,
2013-07-01 14:53:00,83.0,73.0,-100.00,SSW,207,3.0,9.0,71,0.00,,,0.00,707.000000,,2013-07-01 18:53:00,
2013-07-01 15:02:00,83.0,73.0,-100.00,SSW,207,3.0,9.0,71,0.00,,,0.00,707.000000,,2013-07-01 19:02:00,
2013-07-01 15:11:00,83.0,73.0,-100.00,SSW,207,3.0,9.0,71,0.00,,,0.00,707.000000,,2013-07-01 19:11:00,
2013-07-01 15:44:00,85.0,70.0,-100.00,South,185,4.0,11.0,60,0.00,,,0.00,740.000000,,2013-07-01 19:44:00,
2013-07-01 15:53:00,85.0,70.0,-100.00,South,185,4.0,11.0,60,0.00,,,0.00,740.000000,,2013-07-01 19:53:00,
2013-07-01 16:02:00,85.0,70.0,-100.00,South,185,4.0,11.0,60,0.00,,,0.00,740.000000,,2013-07-01 20:02:00,
2013-07-01 16:11:00,85.0,70.0,-100.00,South,185,4.0,11.0,60,0.00,,,0.00,740.000000,,2013-07-01 20:11:00,
2013-07-01 16:43:00,84.0,70.0,-100.00,SSE,163,4.0,11.0,64,0.00,,,0.00,674.000000,,2013-07-01 20:43:00,
2013-07-01 16:52:00,84.0,70.0,-100.00,SSE,163,4.0,11.0,64,0.00,,,0.00,674.000000,,2013-07-01 20:52:00,
2013-07-01 17:02:00,84.0,70.0,-100.00,SSE,163,4.0,11.0,64,0.00,,,0.00,674.000000,,2013-07-01 21:02:00,
2013-07-01 17:11:00,84.0,70.0,-100.00,SSE,163,4.0,11.0,64,0.00,,,0.00,674.000000,,2013-07-01 21:11:00,
2013-07-01 17:44:00,85.0,70.0,-100.00,SE,131,3.0,11.0,62,0.00,,,0.00,516.000000,,2013-07-01 21:44:00,
2013-07-01 17:53:00,85.0,70.0,-100.00,SE,131,3.0,11.0,62,0.00,,,0.00,516.000000,,2013-07-01 21:53:00,
2013-07-01 18:01:00,85.0,70.0,-100.00,SE,131,3.0,11.0,62,0.00,,,0.00,516.000000,,2013-07-01 22:01:00,
2013-07-01 18:12:00,85.0,70.0,-100.00,SE,131,3.0,11.0,62,0.00,,,0.00,516.000000,,2013-07-01 22:12:00,
2013-07-01 18:43:00,81.0,68.0,-100.00,SSE,156,5.0,13.0,64,0.00,,,0.00,227.000000,,2013-07-01 22:43:00,
2013-07-01 18:53:00,81.0,68.0,-100.00,SSE,156,5.0,13.0,64,0.00,,,0.00,227.000000,,2013-07-01 22:53:00,
2013-07-01 19:01:00,81.0,68.0,-100.00,SSE,156,5.0,13.0,64,0.00,,,0.00,227.000000,,2013-07-01 23:01:00,
2013-07-01 19:11:00,81.0,68.0,-100.00,SSE,156,5.0,13.0,64,0.00,,,0.00,227.000000,,2013-07-01 23:11:00,
2013-07-01 19:44:00,80.0,70.0,-100.00,SSE,160,4.0,13.0,71,0.00,,,0.00,96.000000,,2013-07-01 23:44:00,
2013-07-01 19:53:00,80.0,70.0,-100.00,SSE,160,4.0,13.0,71,0.00,,,0.00,96.000000,,2013-07-01 23:53:00,
2013-07-01 20:01:00,80.0,70.0,-100.00,SSE,160,4.0,13.0,71,0.00,,,0.00,96.000000,,2013-07-02 00:01:00,
2013-07-01 20:12:00,80.0,70.0,-100.00,SSE,160,4.0,13.0,71,0.00,,,0.00,96.000000,,2013-07-02 00:12:00,
2013-07-01 20:43:00,79.0,69.0,-100.00,SE,143,3.0,10.0,72,0.00,,,0.00,65.000000,,2013-07-02 00:43:00,
2013-07-01 20:53:00,79.0,69.0,-100.00,SE,143,3.0,10.0,72,0.00,,,0.00,65.000000,,2013-07-02 00:53:00,
2013-07-01 21:01:00,79.0,69.0,-100.00,SE,143,3.0,10.0,72,0.00,,,0.00,65.000000,,2013-07-02 01:01:00,
2013-07-01 21:11:00,79.0,69.0,-100.00,SE,143,3.0,10.0,72,0.00,,,0.00,65.000000,,2013-07-02 01:11:00,
2013-07-01 21:43:00,76.0,69.0,-100.00,ESE,108,2.0,8.0,79,0.00,,,0.00,6.000000,,2013-07-02 01:43:00,
2013-07-01 21:53:00,76.0,69.0,-100.00,ESE,108,2.0,8.0,79,0.00,,,0.00,6.000000,,2013-07-02 01:53:00,
2013-07-01 22:02:00,76.0,69.0,-100.00,ESE,108,2.0,8.0,79,0.00,,,0.00,6.000000,,2013-07-02 02:02:00,
2013-07-01 22:12:00,76.0,69.0,-100.00,ESE,108,2.0,8.0,79,0.00,,,0.00,6.000000,,2013-07-02 02:12:00,
2013-07-01 22:43:00,73.0,69.0,-100.00,ESE,114,2.0,5.0,87,0.00,,,0.00,0.000000,,2013-07-02 02:43:00,
2013-07-01 22:53:00,73.0,69.0,-100.00,ESE,114,2.0,5.0,87,0.00,,,0.00,0.000000,,2013-07-02 02:53:00,
2013-07-01 23:02:00,73.0,69.0,-100.00,ESE,114,2.0,5.0,87,0.00,,,0.00,0.000000,,2013-07-02 03:02:00,
2013-07-01 23:12:00,73.0,69.0,-100.00,ESE,114,2.0,5.0,87,0.00,,,0.00,0.000000,,2013-07-02 03:12:00,
2013-07-01 23:43:00,74.0,71.0,-100.00,SE,140,2.0,7.0,90,0.00,,,0.00,0.000000,,2013-07-02 03:43:00,
2013-07-01 23:53:00,74.0,71.0,-100.00,SE,140,2.0,7.0,90,0.00,,,0.00,0.000000,,2013-07-02 03:53:00,